KLFK/LFK METAR and TAF weather

Enter ICAO airport designator
Station Type Date Time Source
KLFK METAR 2022/05/23 14:53 UTC NOAA

KLFK 231453Z AUTO 04004KT 10SM OVC009 19/17 A3012 RMK AO2 SLP196 T01940172 51014


Station Type Date Time Source
KLFK Decoded METAR 2022/05/23 14:53 UTC NOAA

LUFKIN ANGELINA COUNTY AIRPORT , TX, United States (KLFK) 31-14N 94-45W 88M
May 23, 2022 - 10:53 AM EDT / 2022.05.23 1453 UTC
Wind: from the NE (040 degrees) at 5 MPH (4 KT):0
Visibility: 10 mile(s):0
Sky conditions: overcast
Temperature: 66.9 F (19.4 C)
Dew Point: 63.0 F (17.2 C)
Relative Humidity: 87%
Pressure (altimeter): 30.12 in. Hg (1019 hPa)
Pressure tendency: 0.04 inches (1.4 hPa) higher than three hours ago
ob: KLFK 231453Z AUTO 04004KT 10SM OVC009 19/17 A3012 RMK AO2 SLP196 T01940172 51014
cycle: 15

Station Type Date Time Source
KLFK TAF 2022/05/23 12:42 UTC NOAA

TAF KLFK 231141Z 2312/2412 04006KT P6SM OVC010
FM231600 05007KT P6SM BKN020
FM231800 07006KT P6SM BKN035
FM240000 08006KT P6SM SCT045
FM240600 11005KT P6SM BKN020
FM241000 12006KT P6SM BKN009

Example: see airport list